sensor_id;sensor_type;location;lat;lon;timestamp;P1;durP1;ratioP1;P2;durP2;ratioP2
54201;SDS011;40108;53.152;5.844;2023-07-13T00:01:15;10.38;;;1.50;;
54201;SDS011;40108;53.152;5.844;2023-07-13T00:03:41;8.23;;;1.65;;
54201;SDS011;40108;53.152;5.844;2023-07-13T00:06:07;5.75;;;1.10;;
54201;SDS011;40108;53.152;5.844;2023-07-13T00:08:34;9.00;;;1.08;;
54201;SDS011;40108;53.152;5.844;2023-07-13T00:11:00;9.02;;;1.58;;
54201;SDS011;40108;53.152;5.844;2023-07-13T00:13:27;8.02;;;1.00;;
54201;SDS011;40108;53.152;5.844;2023-07-13T00:15:54;6.70;;;1.38;;
54201;SDS011;40108;53.152;5.844;2023-07-13T00:18:21;5.35;;;0.90;;
54201;SDS011;40108;53.152;5.844;2023-07-13T00:20:46;7.07;;;1.20;;
54201;SDS011;40108;53.152;5.844;2023-07-13T00:23:13;5.80;;;1.02;;
54201;SDS011;40108;53.152;5.844;2023-07-13T00:25:39;5.85;;;1.27;;
54201;SDS011;40108;53.152;5.844;2023-07-13T00:28:05;6.85;;;1.40;;
54201;SDS011;40108;53.152;5.844;2023-07-13T00:30:31;3.88;;;1.15;;
54201;SDS011;40108;53.152;5.844;2023-07-13T00:32:56;3.97;;;0.95;;
54201;SDS011;40108;53.152;5.844;2023-07-13T00:35:22;5.18;;;1.00;;
54201;SDS011;40108;53.152;5.844;2023-07-13T00:37:48;4.55;;;0.82;;
54201;SDS011;40108;53.152;5.844;2023-07-13T00:40:17;4.32;;;0.95;;
54201;SDS011;40108;53.152;5.844;2023-07-13T00:42:42;3.97;;;0.55;;
54201;SDS011;40108;53.152;5.844;2023-07-13T00:47:37;5.80;;;0.88;;
54201;SDS011;40108;53.152;5.844;2023-07-13T00:50:07;6.28;;;0.90;;
54201;SDS011;40108;53.152;5.844;2023-07-13T00:52:36;3.58;;;0.93;;
54201;SDS011;40108;53.152;5.844;2023-07-13T00:55:05;4.32;;;0.70;;
54201;SDS011;40108;53.152;5.844;2023-07-13T00:57:32;3.55;;;0.80;;
54201;SDS011;40108;53.152;5.844;2023-07-13T00:59:59;4.00;;;0.80;;
54201;SDS011;40108;53.152;5.844;2023-07-13T01:02:31;3.35;;;0.77;;
54201;SDS011;40108;53.152;5.844;2023-07-13T01:04:58;4.45;;;0.65;;
54201;SDS011;40108;53.152;5.844;2023-07-13T01:07:23;4.13;;;0.95;;
54201;SDS011;40108;53.152;5.844;2023-07-13T01:09:50;2.72;;;0.65;;
54201;SDS011;40108;53.152;5.844;2023-07-13T01:12:16;7.35;;;1.08;;
54201;SDS011;40108;53.152;5.844;2023-07-13T01:14:42;5.05;;;0.90;;
54201;SDS011;40108;53.152;5.844;2023-07-13T01:17:08;3.60;;;0.90;;
54201;SDS011;40108;53.152;5.844;2023-07-13T01:19:37;8.63;;;1.00;;
54201;SDS011;40108;53.152;5.844;2023-07-13T01:24:42;4.63;;;1.00;;
54201;SDS011;40108;53.152;5.844;2023-07-13T01:27:10;6.13;;;0.95;;
54201;SDS011;40108;53.152;5.844;2023-07-13T01:29:38;6.85;;;1.00;;
54201;SDS011;40108;53.152;5.844;2023-07-13T01:32:12;5.97;;;1.30;;
54201;SDS011;40108;53.152;5.844;2023-07-13T01:34:40;6.57;;;1.40;;
54201;SDS011;40108;53.152;5.844;2023-07-13T01:37:10;7.60;;;1.23;;
54201;SDS011;40108;53.152;5.844;2023-07-13T01:39:36;5.38;;;1.10;;
54201;SDS011;40108;53.152;5.844;2023-07-13T01:42:02;8.10;;;1.00;;
54201;SDS011;40108;53.152;5.844;2023-07-13T01:44:28;3.67;;;0.98;;
54201;SDS011;40108;53.152;5.844;2023-07-13T01:46:54;4.45;;;0.88;;
54201;SDS011;40108;53.152;5.844;2023-07-13T01:49:20;6.00;;;1.10;;
54201;SDS011;40108;53.152;5.844;2023-07-13T01:51:46;4.85;;;1.00;;
54201;SDS011;40108;53.152;5.844;2023-07-13T01:54:12;8.57;;;1.38;;
54201;SDS011;40108;53.152;5.844;2023-07-13T01:56:37;6.65;;;1.20;;
54201;SDS011;40108;53.152;5.844;2023-07-13T01:59:04;4.22;;;1.15;;
54201;SDS011;40108;53.152;5.844;2023-07-13T02:01:30;7.55;;;1.13;;
54201;SDS011;40108;53.152;5.844;2023-07-13T02:03:56;7.22;;;1.15;;
54201;SDS011;40108;53.152;5.844;2023-07-13T02:06:21;6.00;;;1.38;;
54201;SDS011;40108;53.152;5.844;2023-07-13T02:08:47;6.30;;;1.35;;
54201;SDS011;40108;53.152;5.844;2023-07-13T02:11:13;6.85;;;1.50;;
54201;SDS011;40108;53.152;5.844;2023-07-13T02:13:39;8.55;;;1.27;;
54201;SDS011;40108;53.152;5.844;2023-07-13T02:16:04;6.43;;;1.30;;
54201;SDS011;40108;53.152;5.844;2023-07-13T02:18:31;3.92;;;1.30;;
54201;SDS011;40108;53.152;5.844;2023-07-13T02:20:57;9.27;;;1.40;;
54201;SDS011;40108;53.152;5.844;2023-07-13T02:23:23;6.18;;;1.60;;
54201;SDS011;40108;53.152;5.844;2023-07-13T02:25:49;6.45;;;1.40;;
54201;SDS011;40108;53.152;5.844;2023-07-13T02:28:22;9.18;;;1.50;;
54201;SDS011;40108;53.152;5.844;2023-07-13T02:30:48;9.63;;;1.90;;
54201;SDS011;40108;53.152;5.844;2023-07-13T02:33:14;11.50;;;1.80;;
54201;SDS011;40108;53.152;5.844;2023-07-13T02:35:40;6.70;;;1.58;;
54201;SDS011;40108;53.152;5.844;2023-07-13T02:38:06;8.18;;;2.10;;
54201;SDS011;40108;53.152;5.844;2023-07-13T02:40:32;12.60;;;2.13;;
54201;SDS011;40108;53.152;5.844;2023-07-13T02:43:01;9.90;;;2.22;;
54201;SDS011;40108;53.152;5.844;2023-07-13T02:45:27;14.43;;;2.47;;
54201;SDS011;40108;53.152;5.844;2023-07-13T02:47:53;10.82;;;2.05;;
54201;SDS011;40108;53.152;5.844;2023-07-13T02:50:19;15.05;;;2.40;;
54201;SDS011;40108;53.152;5.844;2023-07-13T02:52:45;17.40;;;2.30;;
54201;SDS011;40108;53.152;5.844;2023-07-13T02:55:11;9.60;;;2.40;;
54201;SDS011;40108;53.152;5.844;2023-07-13T02:57:37;13.25;;;2.58;;
54201;SDS011;40108;53.152;5.844;2023-07-13T03:00:03;15.70;;;2.58;;
54201;SDS011;40108;53.152;5.844;2023-07-13T03:02:32;13.82;;;2.83;;
54201;SDS011;40108;53.152;5.844;2023-07-13T03:04:59;20.25;;;3.00;;
54201;SDS011;40108;53.152;5.844;2023-07-13T03:07:24;18.35;;;3.08;;
54201;SDS011;40108;53.152;5.844;2023-07-13T03:09:54;18.38;;;2.80;;
54201;SDS011;40108;53.152;5.844;2023-07-13T03:12:21;14.07;;;3.10;;
54201;SDS011;40108;53.152;5.844;2023-07-13T03:14:47;18.02;;;3.00;;
54201;SDS011;40108;53.152;5.844;2023-07-13T03:17:12;15.27;;;3.20;;
54201;SDS011;40108;53.152;5.844;2023-07-13T03:19:38;16.77;;;2.92;;
54201;SDS011;40108;53.152;5.844;2023-07-13T03:22:04;18.88;;;3.65;;
54201;SDS011;40108;53.152;5.844;2023-07-13T03:24:31;17.48;;;3.55;;
54201;SDS011;40108;53.152;5.844;2023-07-13T03:26:58;14.50;;;3.00;;
54201;SDS011;40108;53.152;5.844;2023-07-13T03:29:26;15.40;;;3.55;;
54201;SDS011;40108;53.152;5.844;2023-07-13T03:31:52;15.73;;;3.22;;
54201;SDS011;40108;53.152;5.844;2023-07-13T03:34:17;16.70;;;3.60;;
54201;SDS011;40108;53.152;5.844;2023-07-13T03:36:43;17.08;;;2.92;;
54201;SDS011;40108;53.152;5.844;2023-07-13T03:39:09;13.18;;;3.30;;
54201;SDS011;40108;53.152;5.844;2023-07-13T03:41:34;11.32;;;3.47;;
54201;SDS011;40108;53.152;5.844;2023-07-13T03:44:01;15.38;;;3.97;;
54201;SDS011;40108;53.152;5.844;2023-07-13T03:46:26;16.02;;;3.88;;
54201;SDS011;40108;53.152;5.844;2023-07-13T03:48:52;11.07;;;3.35;;
54201;SDS011;40108;53.152;5.844;2023-07-13T03:51:18;19.45;;;4.80;;
54201;SDS011;40108;53.152;5.844;2023-07-13T03:53:45;15.13;;;3.20;;
54201;SDS011;40108;53.152;5.844;2023-07-13T03:56:12;16.02;;;4.28;;
54201;SDS011;40108;53.152;5.844;2023-07-13T03:58:43;15.35;;;4.10;;
54201;SDS011;40108;53.152;5.844;2023-07-13T04:01:11;15.98;;;3.55;;
54201;SDS011;40108;53.152;5.844;2023-07-13T04:03:37;8.50;;;3.58;;
54201;SDS011;40108;53.152;5.844;2023-07-13T04:06:04;13.75;;;3.58;;
54201;SDS011;40108;53.152;5.844;2023-07-13T04:08:33;15.20;;;3.47;;
54201;SDS011;40108;53.152;5.844;2023-07-13T04:11:00;18.52;;;3.75;;
54201;SDS011;40108;53.152;5.844;2023-07-13T04:13:27;16.48;;;3.65;;
54201;SDS011;40108;53.152;5.844;2023-07-13T04:15:53;12.60;;;3.50;;
54201;SDS011;40108;53.152;5.844;2023-07-13T04:18:19;10.23;;;3.30;;
54201;SDS011;40108;53.152;5.844;2023-07-13T04:20:45;12.50;;;3.50;;
54201;SDS011;40108;53.152;5.844;2023-07-13T04:23:12;19.15;;;3.72;;
54201;SDS011;40108;53.152;5.844;2023-07-13T04:25:45;15.40;;;3.78;;
54201;SDS011;40108;53.152;5.844;2023-07-13T04:28:14;17.00;;;4.00;;
54201;SDS011;40108;53.152;5.844;2023-07-13T04:30:41;15.85;;;3.50;;
54201;SDS011;40108;53.152;5.844;2023-07-13T04:33:06;15.05;;;3.70;;
54201;SDS011;40108;53.152;5.844;2023-07-13T04:35:33;14.85;;;3.50;;
54201;SDS011;40108;53.152;5.844;2023-07-13T04:38:00;10.93;;;3.50;;
54201;SDS011;40108;53.152;5.844;2023-07-13T04:40:26;12.05;;;3.03;;
54201;SDS011;40108;53.152;5.844;2023-07-13T04:42:52;11.10;;;3.35;;
54201;SDS011;40108;53.152;5.844;2023-07-13T04:45:18;16.30;;;3.67;;
54201;SDS011;40108;53.152;5.844;2023-07-13T04:47:44;11.98;;;3.60;;
54201;SDS011;40108;53.152;5.844;2023-07-13T04:50:12;17.15;;;4.13;;
54201;SDS011;40108;53.152;5.844;2023-07-13T04:52:43;10.95;;;3.42;;
54201;SDS011;40108;53.152;5.844;2023-07-13T04:55:10;12.57;;;3.05;;
54201;SDS011;40108;53.152;5.844;2023-07-13T04:57:39;10.80;;;3.20;;
54201;SDS011;40108;53.152;5.844;2023-07-13T05:00:05;15.98;;;3.45;;
54201;SDS011;40108;53.152;5.844;2023-07-13T05:02:32;13.52;;;3.80;;
54201;SDS011;40108;53.152;5.844;2023-07-13T05:04:58;13.95;;;3.45;;
54201;SDS011;40108;53.152;5.844;2023-07-13T05:07:25;11.85;;;3.40;;
54201;SDS011;40108;53.152;5.844;2023-07-13T05:09:51;13.20;;;3.10;;
54201;SDS011;40108;53.152;5.844;2023-07-13T05:12:17;15.10;;;3.38;;
54201;SDS011;40108;53.152;5.844;2023-07-13T05:14:42;16.77;;;3.97;;
54201;SDS011;40108;53.152;5.844;2023-07-13T05:17:08;10.40;;;3.00;;
54201;SDS011;40108;53.152;5.844;2023-07-13T05:19:34;11.80;;;3.15;;
54201;SDS011;40108;53.152;5.844;2023-07-13T05:22:00;9.20;;;2.75;;
54201;SDS011;40108;53.152;5.844;2023-07-13T05:24:27;7.15;;;2.58;;
54201;SDS011;40108;53.152;5.844;2023-07-13T05:26:53;8.32;;;2.85;;
54201;SDS011;40108;53.152;5.844;2023-07-13T05:29:19;9.15;;;2.55;;
54201;SDS011;40108;53.152;5.844;2023-07-13T05:31:46;6.50;;;2.30;;
54201;SDS011;40108;53.152;5.844;2023-07-13T05:34:11;9.93;;;2.47;;
54201;SDS011;40108;53.152;5.844;2023-07-13T05:36:37;9.18;;;2.60;;
54201;SDS011;40108;53.152;5.844;2023-07-13T05:39:03;14.45;;;3.22;;
54201;SDS011;40108;53.152;5.844;2023-07-13T05:41:29;17.50;;;3.33;;
54201;SDS011;40108;53.152;5.844;2023-07-13T05:43:55;7.80;;;2.00;;
54201;SDS011;40108;53.152;5.844;2023-07-13T05:46:21;11.07;;;2.38;;
54201;SDS011;40108;53.152;5.844;2023-07-13T05:48:47;7.47;;;1.98;;
54201;SDS011;40108;53.152;5.844;2023-07-13T05:51:12;6.13;;;1.90;;
54201;SDS011;40108;53.152;5.844;2023-07-13T05:53:38;8.85;;;2.05;;
54201;SDS011;40108;53.152;5.844;2023-07-13T05:56:04;10.15;;;1.95;;
54201;SDS011;40108;53.152;5.844;2023-07-13T05:58:30;6.70;;;1.90;;
54201;SDS011;40108;53.152;5.844;2023-07-13T06:01:00;6.93;;;1.80;;
54201;SDS011;40108;53.152;5.844;2023-07-13T06:03:28;10.05;;;1.90;;
54201;SDS011;40108;53.152;5.844;2023-07-13T06:05:54;8.85;;;1.70;;
54201;SDS011;40108;53.152;5.844;2023-07-13T06:08:20;8.93;;;1.80;;
54201;SDS011;40108;53.152;5.844;2023-07-13T06:10:46;6.43;;;1.65;;
54201;SDS011;40108;53.152;5.844;2023-07-13T06:13:11;7.28;;;1.85;;
54201;SDS011;40108;53.152;5.844;2023-07-13T06:15:37;11.70;;;1.80;;
54201;SDS011;40108;53.152;5.844;2023-07-13T06:18:03;5.43;;;1.60;;
54201;SDS011;40108;53.152;5.844;2023-07-13T06:20:28;5.38;;;1.65;;
54201;SDS011;40108;53.152;5.844;2023-07-13T06:22:54;6.57;;;1.63;;
54201;SDS011;40108;53.152;5.844;2023-07-13T06:25:20;5.60;;;1.30;;
54201;SDS011;40108;53.152;5.844;2023-07-13T06:27:46;7.63;;;1.65;;
54201;SDS011;40108;53.152;5.844;2023-07-13T06:30:12;8.35;;;1.48;;
54201;SDS011;40108;53.152;5.844;2023-07-13T06:32:38;7.68;;;1.50;;
54201;SDS011;40108;53.152;5.844;2023-07-13T06:35:03;6.47;;;1.65;;
54201;SDS011;40108;53.152;5.844;2023-07-13T06:37:29;9.98;;;2.40;;
54201;SDS011;40108;53.152;5.844;2023-07-13T06:39:55;5.65;;;1.70;;
54201;SDS011;40108;53.152;5.844;2023-07-13T06:42:21;8.18;;;1.80;;
54201;SDS011;40108;53.152;5.844;2023-07-13T06:44:46;9.07;;;1.70;;
54201;SDS011;40108;53.152;5.844;2023-07-13T06:47:12;7.05;;;2.53;;
54201;SDS011;40108;53.152;5.844;2023-07-13T06:49:38;4.30;;;1.65;;
54201;SDS011;40108;53.152;5.844;2023-07-13T06:52:04;5.97;;;1.50;;
54201;SDS011;40108;53.152;5.844;2023-07-13T06:54:30;4.95;;;1.40;;
54201;SDS011;40108;53.152;5.844;2023-07-13T06:56:55;6.57;;;1.50;;
54201;SDS011;40108;53.152;5.844;2023-07-13T06:59:21;5.43;;;1.67;;
54201;SDS011;40108;53.152;5.844;2023-07-13T07:01:47;6.68;;;1.40;;
54201;SDS011;40108;53.152;5.844;2023-07-13T07:04:13;7.28;;;1.25;;
54201;SDS011;40108;53.152;5.844;2023-07-13T07:06:38;5.22;;;1.40;;
54201;SDS011;40108;53.152;5.844;2023-07-13T07:09:04;5.03;;;1.40;;
54201;SDS011;40108;53.152;5.844;2023-07-13T07:11:30;6.38;;;1.20;;
54201;SDS011;40108;53.152;5.844;2023-07-13T07:13:55;3.30;;;1.08;;
54201;SDS011;40108;53.152;5.844;2023-07-13T07:16:21;5.47;;;1.30;;
54201;SDS011;40108;53.152;5.844;2023-07-13T07:18:49;9.90;;;2.40;;
54201;SDS011;40108;53.152;5.844;2023-07-13T07:21:15;6.15;;;1.67;;
54201;SDS011;40108;53.152;5.844;2023-07-13T07:23:42;8.15;;;2.05;;
54201;SDS011;40108;53.152;5.844;2023-07-13T07:26:08;10.95;;;1.98;;
54201;SDS011;40108;53.152;5.844;2023-07-13T07:28:35;6.88;;;1.50;;
54201;SDS011;40108;53.152;5.844;2023-07-13T07:31:01;9.07;;;1.85;;
54201;SDS011;40108;53.152;5.844;2023-07-13T07:33:27;7.00;;;1.58;;
54201;SDS011;40108;53.152;5.844;2023-07-13T07:35:52;9.15;;;1.70;;
54201;SDS011;40108;53.152;5.844;2023-07-13T07:38:18;5.65;;;1.75;;
54201;SDS011;40108;53.152;5.844;2023-07-13T07:40:44;9.05;;;1.70;;
54201;SDS011;40108;53.152;5.844;2023-07-13T07:43:10;9.15;;;1.60;;
54201;SDS011;40108;53.152;5.844;2023-07-13T07:45:37;6.45;;;1.80;;
54201;SDS011;40108;53.152;5.844;2023-07-13T07:48:04;9.20;;;1.65;;
54201;SDS011;40108;53.152;5.844;2023-07-13T07:50:31;6.32;;;1.70;;
54201;SDS011;40108;53.152;5.844;2023-07-13T07:52:57;8.35;;;1.60;;
54201;SDS011;40108;53.152;5.844;2023-07-13T07:55:23;7.13;;;1.63;;
54201;SDS011;40108;53.152;5.844;2023-07-13T07:57:51;11.73;;;1.75;;
54201;SDS011;40108;53.152;5.844;2023-07-13T08:00:17;8.27;;;1.50;;
54201;SDS011;40108;53.152;5.844;2023-07-13T08:02:43;5.95;;;1.50;;
54201;SDS011;40108;53.152;5.844;2023-07-13T08:05:10;9.15;;;1.50;;
54201;SDS011;40108;53.152;5.844;2023-07-13T08:07:39;6.88;;;1.55;;
54201;SDS011;40108;53.152;5.844;2023-07-13T08:10:05;5.45;;;1.10;;
54201;SDS011;40108;53.152;5.844;2023-07-13T08:12:35;4.47;;;1.40;;
54201;SDS011;40108;53.152;5.844;2023-07-13T08:15:01;5.57;;;1.10;;
54201;SDS011;40108;53.152;5.844;2023-07-13T08:17:28;4.93;;;1.08;;
54201;SDS011;40108;53.152;5.844;2023-07-13T08:19:53;6.35;;;1.63;;
54201;SDS011;40108;53.152;5.844;2023-07-13T08:22:19;6.15;;;1.52;;
54201;SDS011;40108;53.152;5.844;2023-07-13T08:24:45;4.60;;;1.50;;
54201;SDS011;40108;53.152;5.844;2023-07-13T08:27:12;6.38;;;1.33;;
54201;SDS011;40108;53.152;5.844;2023-07-13T08:29:38;14.73;;;3.20;;
54201;SDS011;40108;53.152;5.844;2023-07-13T08:32:05;4.13;;;1.10;;
54201;SDS011;40108;53.152;5.844;2023-07-13T08:34:34;3.08;;;1.08;;
54201;SDS011;40108;53.152;5.844;2023-07-13T08:37:01;5.53;;;1.42;;
54201;SDS011;40108;53.152;5.844;2023-07-13T08:39:28;4.65;;;1.25;;
54201;SDS011;40108;53.152;5.844;2023-07-13T08:41:56;7.28;;;1.35;;
54201;SDS011;40108;53.152;5.844;2023-07-13T08:44:49;3.95;;;0.90;;
54201;SDS011;40108;53.152;5.844;2023-07-13T08:47:22;2.65;;;1.00;;
54201;SDS011;40108;53.152;5.844;2023-07-13T08:49:49;5.10;;;1.02;;
54201;SDS011;40108;53.152;5.844;2023-07-13T08:54:45;1.95;;;0.70;;
54201;SDS011;40108;53.152;5.844;2023-07-13T08:57:20;3.35;;;1.00;;
54201;SDS011;40108;53.152;5.844;2023-07-13T08:59:49;7.32;;;1.38;;
54201;SDS011;40108;53.152;5.844;2023-07-13T09:12:51;4.15;;;1.08;;
54201;SDS011;40108;53.152;5.844;2023-07-13T09:15:24;2.63;;;0.90;;
54201;SDS011;40108;53.152;5.844;2023-07-13T09:17:52;7.72;;;0.90;;
54201;SDS011;40108;53.152;5.844;2023-07-13T09:20:26;3.88;;;1.10;;
54201;SDS011;40108;53.152;5.844;2023-07-13T09:22:59;4.15;;;1.00;;
54201;SDS011;40108;53.152;5.844;2023-07-13T09:25:31;4.60;;;0.90;;
54201;SDS011;40108;53.152;5.844;2023-07-13T09:28:00;5.70;;;0.88;;
54201;SDS011;40108;53.152;5.844;2023-07-13T09:33:28;5.68;;;0.90;;
54201;SDS011;40108;53.152;5.844;2023-07-13T09:35:58;2.97;;;0.80;;
54201;SDS011;40108;53.152;5.844;2023-07-13T09:38:26;1.77;;;0.60;;
54201;SDS011;40108;53.152;5.844;2023-07-13T09:43:26;2.38;;;0.77;;
54201;SDS011;40108;53.152;5.844;2023-07-13T09:45:55;3.63;;;0.80;;
54201;SDS011;40108;53.152;5.844;2023-07-13T09:48:21;4.75;;;1.00;;
54201;SDS011;40108;53.152;5.844;2023-07-13T09:50:49;4.32;;;0.75;;
54201;SDS011;40108;53.152;5.844;2023-07-13T09:53:21;8.45;;;1.13;;
54201;SDS011;40108;53.152;5.844;2023-07-13T09:55:48;3.38;;;0.73;;
54201;SDS011;40108;53.152;5.844;2023-07-13T10:00:43;3.85;;;1.10;;
54201;SDS011;40108;53.152;5.844;2023-07-13T10:03:21;3.15;;;0.90;;
54201;SDS011;40108;53.152;5.844;2023-07-13T10:05:52;4.47;;;1.02;;
54201;SDS011;40108;53.152;5.844;2023-07-13T10:08:23;3.53;;;0.85;;
54201;SDS011;40108;53.152;5.844;2023-07-13T10:11:39;5.90;;;1.00;;
54201;SDS011;40108;53.152;5.844;2023-07-13T10:13:42;5.28;;;1.10;;
54201;SDS011;40108;53.152;5.844;2023-07-13T10:16:10;4.75;;;1.23;;
54201;SDS011;40108;53.152;5.844;2023-07-13T10:21:15;5.68;;;1.10;;
54201;SDS011;40108;53.152;5.844;2023-07-13T10:23:44;5.07;;;1.67;;
54201;SDS011;40108;53.152;5.844;2023-07-13T10:26:15;7.13;;;1.52;;
54201;SDS011;40108;53.152;5.844;2023-07-13T10:28:45;4.57;;;1.27;;
54201;SDS011;40108;53.152;5.844;2023-07-13T10:31:15;2.63;;;1.30;;
54201;SDS011;40108;53.152;5.844;2023-07-13T10:33:42;5.85;;;1.27;;
54201;SDS011;40108;53.152;5.844;2023-07-13T10:41:06;5.85;;;1.30;;
54201;SDS011;40108;53.152;5.844;2023-07-13T10:43:41;6.53;;;1.10;;
54201;SDS011;40108;53.152;5.844;2023-07-13T10:46:11;5.00;;;1.13;;
54201;SDS011;40108;53.152;5.844;2023-07-13T10:48:40;6.70;;;0.90;;
54201;SDS011;40108;53.152;5.844;2023-07-13T10:51:08;5.20;;;1.13;;
54201;SDS011;40108;53.152;5.844;2023-07-13T10:53:36;6.50;;;1.20;;
54201;SDS011;40108;53.152;5.844;2023-07-13T11:01:40;6.55;;;1.25;;
54201;SDS011;40108;53.152;5.844;2023-07-13T11:04:29;7.05;;;1.50;;
54201;SDS011;40108;53.152;5.844;2023-07-13T11:07:11;7.20;;;1.67;;
54201;SDS011;40108;53.152;5.844;2023-07-13T11:09:56;7.38;;;1.65;;
54201;SDS011;40108;53.152;5.844;2023-07-13T11:12:48;6.43;;;1.73;;
54201;SDS011;40108;53.152;5.844;2023-07-13T11:15:15;5.68;;;1.30;;
54201;SDS011;40108;53.152;5.844;2023-07-13T11:18:01;6.78;;;1.23;;
54201;SDS011;40108;53.152;5.844;2023-07-13T11:25:37;8.38;;;1.50;;
54201;SDS011;40108;53.152;5.844;2023-07-13T11:30:48;5.15;;;1.52;;
54201;SDS011;40108;53.152;5.844;2023-07-13T11:33:18;3.45;;;1.20;;
54201;SDS011;40108;53.152;5.844;2023-07-13T11:40:58;5.60;;;1.60;;
54201;SDS011;40108;53.152;5.844;2023-07-13T11:43:28;6.82;;;1.88;;
54201;SDS011;40108;53.152;5.844;2023-07-13T11:45:55;6.38;;;1.65;;
54201;SDS011;40108;53.152;5.844;2023-07-13T11:48:25;7.10;;;1.55;;
54201;SDS011;40108;53.152;5.844;2023-07-13T11:51:03;5.22;;;1.48;;
54201;SDS011;40108;53.152;5.844;2023-07-13T11:53:43;6.38;;;1.55;;
54201;SDS011;40108;53.152;5.844;2023-07-13T11:56:12;5.70;;;1.20;;
54201;SDS011;40108;53.152;5.844;2023-07-13T11:58:38;8.38;;;1.40;;
54201;SDS011;40108;53.152;5.844;2023-07-13T12:01:04;3.35;;;1.52;;
54201;SDS011;40108;53.152;5.844;2023-07-13T12:03:31;8.60;;;1.30;;
54201;SDS011;40108;53.152;5.844;2023-07-13T12:06:03;5.45;;;1.20;;
54201;SDS011;40108;53.152;5.844;2023-07-13T12:08:39;5.40;;;1.58;;
54201;SDS011;40108;53.152;5.844;2023-07-13T12:11:06;4.57;;;1.50;;
54201;SDS011;40108;53.152;5.844;2023-07-13T12:13:41;5.30;;;1.38;;
54201;SDS011;40108;53.152;5.844;2023-07-13T12:16:11;4.35;;;1.02;;
54201;SDS011;40108;53.152;5.844;2023-07-13T12:18:41;5.35;;;1.50;;
54201;SDS011;40108;53.152;5.844;2023-07-13T12:21:12;6.43;;;1.60;;
54201;SDS011;40108;53.152;5.844;2023-07-13T12:23:44;4.65;;;1.27;;
54201;SDS011;40108;53.152;5.844;2023-07-13T12:26:12;4.90;;;1.40;;
54201;SDS011;40108;53.152;5.844;2023-07-13T12:28:48;5.93;;;1.33;;
54201;SDS011;40108;53.152;5.844;2023-07-13T12:31:29;4.90;;;1.70;;
54201;SDS011;40108;53.152;5.844;2023-07-13T12:34:12;7.70;;;1.55;;
54201;SDS011;40108;53.152;5.844;2023-07-13T12:36:47;6.30;;;1.58;;
54201;SDS011;40108;53.152;5.844;2023-07-13T12:39:37;8.65;;;1.90;;
54201;SDS011;40108;53.152;5.844;2023-07-13T12:42:18;7.57;;;1.60;;
54201;SDS011;40108;53.152;5.844;2023-07-13T12:44:48;4.50;;;1.50;;
54201;SDS011;40108;53.152;5.844;2023-07-13T12:47:15;6.75;;;1.55;;
54201;SDS011;40108;53.152;5.844;2023-07-13T12:49:42;10.63;;;2.13;;
54201;SDS011;40108;53.152;5.844;2023-07-13T12:54:52;6.95;;;2.00;;
54201;SDS011;40108;53.152;5.844;2023-07-13T12:57:22;4.88;;;1.45;;
54201;SDS011;40108;53.152;5.844;2023-07-13T12:59:51;7.47;;;2.10;;
54201;SDS011;40108;53.152;5.844;2023-07-13T13:02:30;4.63;;;1.58;;
54201;SDS011;40108;53.152;5.844;2023-07-13T13:05:00;9.95;;;2.65;;
54201;SDS011;40108;53.152;5.844;2023-07-13T13:07:28;7.18;;;1.60;;
54201;SDS011;40108;53.152;5.844;2023-07-13T13:09:54;9.02;;;1.70;;
54201;SDS011;40108;53.152;5.844;2023-07-13T13:12:21;4.85;;;1.33;;
54201;SDS011;40108;53.152;5.844;2023-07-13T13:14:50;7.75;;;1.92;;
54201;SDS011;40108;53.152;5.844;2023-07-13T13:17:22;7.38;;;1.73;;
54201;SDS011;40108;53.152;5.844;2023-07-13T13:19:52;7.65;;;1.70;;
54201;SDS011;40108;53.152;5.844;2023-07-13T13:22:19;7.28;;;1.75;;
54201;SDS011;40108;53.152;5.844;2023-07-13T13:24:45;10.48;;;1.65;;
54201;SDS011;40108;53.152;5.844;2023-07-13T13:27:21;5.65;;;1.67;;
54201;SDS011;40108;53.152;5.844;2023-07-13T13:29:49;11.35;;;2.42;;
54201;SDS011;40108;53.152;5.844;2023-07-13T13:32:17;7.72;;;1.60;;
54201;SDS011;40108;53.152;5.844;2023-07-13T13:34:43;6.07;;;1.80;;
54201;SDS011;40108;53.152;5.844;2023-07-13T13:37:16;6.47;;;1.60;;
54201;SDS011;40108;53.152;5.844;2023-07-13T13:39:45;5.00;;;1.45;;
54201;SDS011;40108;53.152;5.844;2023-07-13T13:42:12;5.60;;;1.52;;
54201;SDS011;40108;53.152;5.844;2023-07-13T13:44:41;7.25;;;1.60;;
54201;SDS011;40108;53.152;5.844;2023-07-13T13:47:12;7.95;;;1.88;;
54201;SDS011;40108;53.152;5.844;2023-07-13T13:49:49;8.50;;;2.33;;
54201;SDS011;40108;53.152;5.844;2023-07-13T13:52:15;6.70;;;1.70;;
54201;SDS011;40108;53.152;5.844;2023-07-13T13:54:40;7.60;;;1.98;;
54201;SDS011;40108;53.152;5.844;2023-07-13T13:57:06;7.05;;;1.90;;
54201;SDS011;40108;53.152;5.844;2023-07-13T13:59:33;7.15;;;1.98;;
54201;SDS011;40108;53.152;5.844;2023-07-13T14:02:07;6.65;;;1.80;;
54201;SDS011;40108;53.152;5.844;2023-07-13T14:05:03;8.35;;;2.63;;
54201;SDS011;40108;53.152;5.844;2023-07-13T14:07:32;8.65;;;2.22;;
54201;SDS011;40108;53.152;5.844;2023-07-13T14:09:58;9.82;;;2.13;;
54201;SDS011;40108;53.152;5.844;2023-07-13T14:12:26;9.52;;;2.22;;
54201;SDS011;40108;53.152;5.844;2023-07-13T14:14:54;10.52;;;2.15;;
54201;SDS011;40108;53.152;5.844;2023-07-13T14:17:21;8.07;;;2.03;;
54201;SDS011;40108;53.152;5.844;2023-07-13T14:19:49;12.07;;;2.80;;
54201;SDS011;40108;53.152;5.844;2023-07-13T14:22:19;15.63;;;2.15;;
54201;SDS011;40108;53.152;5.844;2023-07-13T14:24:45;8.48;;;1.90;;
54201;SDS011;40108;53.152;5.844;2023-07-13T14:27:11;9.00;;;2.30;;
54201;SDS011;40108;53.152;5.844;2023-07-13T14:29:38;8.25;;;1.80;;
54201;SDS011;40108;53.152;5.844;2023-07-13T14:32:05;4.80;;;1.67;;
54201;SDS011;40108;53.152;5.844;2023-07-13T14:34:34;13.65;;;2.58;;
54201;SDS011;40108;53.152;5.844;2023-07-13T14:37:00;7.82;;;1.88;;
54201;SDS011;40108;53.152;5.844;2023-07-13T14:39:26;7.97;;;1.80;;
54201;SDS011;40108;53.152;5.844;2023-07-13T14:41:52;8.02;;;1.80;;
54201;SDS011;40108;53.152;5.844;2023-07-13T14:44:21;8.48;;;1.88;;
54201;SDS011;40108;53.152;5.844;2023-07-13T14:46:49;9.77;;;2.10;;
54201;SDS011;40108;53.152;5.844;2023-07-13T14:49:21;5.28;;;1.70;;
54201;SDS011;40108;53.152;5.844;2023-07-13T14:52:01;8.90;;;2.03;;
54201;SDS011;40108;53.152;5.844;2023-07-13T14:54:36;6.25;;;1.92;;
54201;SDS011;40108;53.152;5.844;2023-07-13T14:57:08;10.60;;;2.25;;
54201;SDS011;40108;53.152;5.844;2023-07-13T14:59:38;6.97;;;1.90;;
54201;SDS011;40108;53.152;5.844;2023-07-13T15:02:12;10.07;;;2.20;;
54201;SDS011;40108;53.152;5.844;2023-07-13T15:04:40;9.95;;;2.33;;
54201;SDS011;40108;53.152;5.844;2023-07-13T15:07:07;10.15;;;2.30;;
54201;SDS011;40108;53.152;5.844;2023-07-13T15:09:35;8.75;;;2.30;;
54201;SDS011;40108;53.152;5.844;2023-07-13T15:12:01;6.75;;;2.28;;
54201;SDS011;40108;53.152;5.844;2023-07-13T15:14:26;7.70;;;1.83;;
54201;SDS011;40108;53.152;5.844;2023-07-13T15:16:56;7.85;;;1.98;;
54201;SDS011;40108;53.152;5.844;2023-07-13T15:19:22;8.57;;;2.15;;
54201;SDS011;40108;53.152;5.844;2023-07-13T15:21:48;6.82;;;1.98;;
54201;SDS011;40108;53.152;5.844;2023-07-13T15:24:15;9.38;;;2.25;;
54201;SDS011;40108;53.152;5.844;2023-07-13T15:26:44;9.23;;;2.00;;
54201;SDS011;40108;53.152;5.844;2023-07-13T15:29:11;4.53;;;1.73;;
54201;SDS011;40108;53.152;5.844;2023-07-13T15:31:37;7.90;;;1.95;;
54201;SDS011;40108;53.152;5.844;2023-07-13T15:34:09;9.07;;;2.20;;
54201;SDS011;40108;53.152;5.844;2023-07-13T15:36:41;5.90;;;2.00;;
54201;SDS011;40108;53.152;5.844;2023-07-13T15:39:08;9.77;;;2.55;;
54201;SDS011;40108;53.152;5.844;2023-07-13T15:41:43;8.10;;;2.20;;
54201;SDS011;40108;53.152;5.844;2023-07-13T15:44:22;9.93;;;2.17;;
54201;SDS011;40108;53.152;5.844;2023-07-13T15:46:51;9.65;;;2.28;;